Terminal Aerodrome Forecast
Issued by NWS Twin Cities, MN

Home | Current Version | Previous Version | Text Only | Print | Product List | Glossary On
Versions: 1 2 3 4 5 6 7 8 9 10 11 12 13 14 15 16 17 18 19
000
FTUS43 KMPX 260703 AAA
TAFSTC
TAF AMD
KSTC 260703Z 2607/2706 08008KT P6SM -DZ OVC019
     FM260800 07006KT 6SM -DZ BR OVC015
     FM261000 06005KT 5SM -RADZ BR OVC007
     FM261400 07006KT 6SM BR OVC005
     FM261800 03006KT P6SM OVC008
     FM262200 01005KT P6SM OVC015
     FM270200 35005KT P6SM OVC025=

USA.gov is the U.S. government's official web portal to all federal, state and local government web resources and services.